Aeroporto :
LOGIN :

Iscrizione | Disclaimer

   EN    FR    IT 

 










Sommario :    VFR   VFR Marginale   IFR   IFR Intensivo   IFR Molto Intensivo
Visibilità : 
Base nubi : 
>= 8 km
>= 3000ft
5 / 8 km
1000 / 3000 ft
1500m / 5 km
500 / 1000 ft
800 / 1500m
200 / 500 ft
< 800m
< 200 ft
Simboli :   Temporali  Nebbia  Neve Forte  Precipitazioni Forti  Vento > 20 kt
SIGMETs :   Varie  Temporali  Ghiacco  Turbolenza  Onda orograficha  Ceneri Vulcaniche






- Altitudine del aeroporto : 87 ft
- Codice IATA : FSC


LFKF - Figari

ULTIMO METAR :
  • 211600Z AUTO 22008KT 9999 FEW028 BKN034 OVC047 16/09 Q1024 NOSIG

METARs OBSOLETI :
  • 211530Z AUTO 22007KT 180V250 9999 SCT029 BKN034 OVC044 16/09 Q1024 NOSIG
  • 211500Z AUTO 24009KT 9999 BKN031 BKN037 OVC045 16/08 Q1024 NOSIG
  • 211430Z AUTO 23011KT 9999 BKN026 BKN033 BKN045 16/09 Q1023 NOSIG
  • 211400Z AUTO 23011KT 200V260 9999 BKN026 BKN035 16/09 Q1023 NOSIG
  • 211330Z AUTO 23013KT 9999 SCT024 BKN033 16/10 Q1024 NOSIG

TAF TAF LFKF
Valido dal 21 a 15 ore il 22 a 15 ore UTC


211400Z 2115/2215 24015KT 9999 BKN030
BECMG 2117/2118 04006KT
PROB40
TEMPO 2122/2205 BKN014



MetMap, La meteo Aeronautica in un colpo d'occhio ! - Copyright ORBIFLY Dicembre 2007 - Disclaimer

ORBIFLY MET'MAP TEAM :

Programmazione e sviluppo : Alexandra Zaïnal
Concezione : Baudouin d'Aumeries
Aiuto per la programmazione : Marc-Olivier Méhu
Supporto tecnico e logistico : Manuel Goepfert
Aiuto per la traduzione : Arnaldo La Scala

Contatto : metmap@orbifly.com




FONTI E CREDITI :

   NOAA